sensor_id;sensor_type;location;lat;lon;timestamp;P1;durP1;ratioP1;P2;durP2;ratioP2
4529;SDS011;2277;51.626;7.516;2023-06-24T00:01:23;4.77;;;3.93;;
4529;SDS011;2277;51.626;7.516;2023-06-24T00:03:49;5.73;;;3.30;;
4529;SDS011;2277;51.626;7.516;2023-06-24T00:06:18;4.40;;;3.60;;
4529;SDS011;2277;51.626;7.516;2023-06-24T00:08:45;4.03;;;3.03;;
4529;SDS011;2277;51.626;7.516;2023-06-24T00:11:12;5.37;;;3.53;;
4529;SDS011;2277;51.626;7.516;2023-06-24T00:13:38;3.40;;;2.50;;
4529;SDS011;2277;51.626;7.516;2023-06-24T00:16:04;4.00;;;3.03;;
4529;SDS011;2277;51.626;7.516;2023-06-24T00:18:31;5.70;;;3.27;;
4529;SDS011;2277;51.626;7.516;2023-06-24T00:20:57;7.00;;;3.87;;
4529;SDS011;2277;51.626;7.516;2023-06-24T00:23:23;4.30;;;3.53;;
4529;SDS011;2277;51.626;7.516;2023-06-24T00:25:50;4.23;;;2.87;;
4529;SDS011;2277;51.626;7.516;2023-06-24T00:28:16;4.80;;;2.80;;
4529;SDS011;2277;51.626;7.516;2023-06-24T00:30:42;6.20;;;3.97;;
4529;SDS011;2277;51.626;7.516;2023-06-24T00:33:07;3.47;;;3.10;;
4529;SDS011;2277;51.626;7.516;2023-06-24T00:35:36;4.07;;;3.47;;
4529;SDS011;2277;51.626;7.516;2023-06-24T00:38:02;4.30;;;3.40;;
4529;SDS011;2277;51.626;7.516;2023-06-24T00:40:28;3.60;;;3.30;;
4529;SDS011;2277;51.626;7.516;2023-06-24T00:42:54;5.30;;;3.47;;
4529;SDS011;2277;51.626;7.516;2023-06-24T00:45:24;5.27;;;3.10;;
4529;SDS011;2277;51.626;7.516;2023-06-24T00:47:50;4.20;;;2.87;;
4529;SDS011;2277;51.626;7.516;2023-06-24T00:50:16;5.47;;;3.00;;
4529;SDS011;2277;51.626;7.516;2023-06-24T00:52:42;3.70;;;3.30;;
4529;SDS011;2277;51.626;7.516;2023-06-24T00:55:08;3.97;;;2.80;;
4529;SDS011;2277;51.626;7.516;2023-06-24T00:57:37;5.23;;;3.83;;
4529;SDS011;2277;51.626;7.516;2023-06-24T01:00:04;3.60;;;3.00;;
4529;SDS011;2277;51.626;7.516;2023-06-24T01:02:36;6.40;;;3.53;;
4529;SDS011;2277;51.626;7.516;2023-06-24T01:05:03;3.13;;;2.53;;
4529;SDS011;2277;51.626;7.516;2023-06-24T01:07:31;4.70;;;2.73;;
4529;SDS011;2277;51.626;7.516;2023-06-24T01:09:58;4.03;;;2.83;;
4529;SDS011;2277;51.626;7.516;2023-06-24T01:12:25;3.50;;;2.70;;
4529;SDS011;2277;51.626;7.516;2023-06-24T01:14:51;16.53;;;3.10;;
4529;SDS011;2277;51.626;7.516;2023-06-24T01:17:19;7.27;;;3.70;;
4529;SDS011;2277;51.626;7.516;2023-06-24T01:31:24;4.07;;;3.03;;
4529;SDS011;2277;51.626;7.516;2023-06-24T01:37:14;8.57;;;5.23;;
4529;SDS011;2277;51.626;7.516;2023-06-24T01:39:52;4.53;;;3.13;;
4529;SDS011;2277;51.626;7.516;2023-06-24T01:42:37;4.30;;;3.30;;
4529;SDS011;2277;51.626;7.516;2023-06-24T01:45:06;6.50;;;4.60;;
4529;SDS011;2277;51.626;7.516;2023-06-24T01:47:37;6.50;;;4.27;;
4529;SDS011;2277;51.626;7.516;2023-06-24T01:50:05;4.03;;;3.00;;
4529;SDS011;2277;51.626;7.516;2023-06-24T01:52:35;3.97;;;3.63;;
4529;SDS011;2277;51.626;7.516;2023-06-24T01:55:01;7.73;;;3.67;;
4529;SDS011;2277;51.626;7.516;2023-06-24T01:57:31;3.73;;;3.10;;
4529;SDS011;2277;51.626;7.516;2023-06-24T01:59:59;5.77;;;4.23;;
4529;SDS011;2277;51.626;7.516;2023-06-24T02:02:25;11.43;;;4.97;;
4529;SDS011;2277;51.626;7.516;2023-06-24T02:04:53;7.67;;;4.40;;
4529;SDS011;2277;51.626;7.516;2023-06-24T02:07:20;5.20;;;4.70;;
4529;SDS011;2277;51.626;7.516;2023-06-24T02:09:46;4.63;;;3.90;;
4529;SDS011;2277;51.626;7.516;2023-06-24T02:12:13;11.83;;;4.50;;
4529;SDS011;2277;51.626;7.516;2023-06-24T02:14:40;5.43;;;3.90;;
4529;SDS011;2277;51.626;7.516;2023-06-24T02:17:07;5.97;;;4.67;;
4529;SDS011;2277;51.626;7.516;2023-06-24T02:19:35;3.83;;;3.13;;
4529;SDS011;2277;51.626;7.516;2023-06-24T02:22:03;4.80;;;4.13;;
4529;SDS011;2277;51.626;7.516;2023-06-24T02:24:34;6.23;;;4.87;;
4529;SDS011;2277;51.626;7.516;2023-06-24T02:27:01;6.97;;;5.00;;
4529;SDS011;2277;51.626;7.516;2023-06-24T02:29:28;6.30;;;3.60;;
4529;SDS011;2277;51.626;7.516;2023-06-24T02:31:55;5.00;;;3.67;;
4529;SDS011;2277;51.626;7.516;2023-06-24T02:34:22;4.60;;;3.83;;
4529;SDS011;2277;51.626;7.516;2023-06-24T02:36:49;4.57;;;4.17;;
4529;SDS011;2277;51.626;7.516;2023-06-24T02:39:14;5.57;;;5.00;;
4529;SDS011;2277;51.626;7.516;2023-06-24T02:41:40;6.70;;;4.53;;
4529;SDS011;2277;51.626;7.516;2023-06-24T02:44:06;5.33;;;4.30;;
4529;SDS011;2277;51.626;7.516;2023-06-24T02:46:33;3.83;;;3.00;;
4529;SDS011;2277;51.626;7.516;2023-06-24T02:49:01;5.17;;;3.63;;
4529;SDS011;2277;51.626;7.516;2023-06-24T02:51:28;6.33;;;3.93;;
4529;SDS011;2277;51.626;7.516;2023-06-24T02:53:54;6.27;;;3.80;;
4529;SDS011;2277;51.626;7.516;2023-06-24T02:56:23;6.10;;;4.43;;
4529;SDS011;2277;51.626;7.516;2023-06-24T02:58:51;3.73;;;2.90;;
4529;SDS011;2277;51.626;7.516;2023-06-24T03:01:18;4.03;;;3.70;;
4529;SDS011;2277;51.626;7.516;2023-06-24T03:03:49;4.87;;;3.60;;
4529;SDS011;2277;51.626;7.516;2023-06-24T03:06:19;6.77;;;3.97;;
4529;SDS011;2277;51.626;7.516;2023-06-24T03:08:46;8.17;;;5.17;;
4529;SDS011;2277;51.626;7.516;2023-06-24T03:11:13;6.60;;;4.03;;
4529;SDS011;2277;51.626;7.516;2023-06-24T03:13:39;6.63;;;4.40;;
4529;SDS011;2277;51.626;7.516;2023-06-24T03:16:05;5.50;;;3.80;;
4529;SDS011;2277;51.626;7.516;2023-06-24T03:18:30;5.87;;;5.33;;
4529;SDS011;2277;51.626;7.516;2023-06-24T03:20:56;7.57;;;4.40;;
4529;SDS011;2277;51.626;7.516;2023-06-24T03:23:22;6.00;;;3.70;;
4529;SDS011;2277;51.626;7.516;2023-06-24T03:25:47;8.57;;;4.07;;
4529;SDS011;2277;51.626;7.516;2023-06-24T03:28:13;6.30;;;4.60;;
4529;SDS011;2277;51.626;7.516;2023-06-24T03:30:39;8.47;;;4.17;;
4529;SDS011;2277;51.626;7.516;2023-06-24T03:33:04;5.17;;;4.67;;
4529;SDS011;2277;51.626;7.516;2023-06-24T03:35:31;5.83;;;4.20;;
4529;SDS011;2277;51.626;7.516;2023-06-24T03:37:57;8.30;;;5.13;;
4529;SDS011;2277;51.626;7.516;2023-06-24T03:40:23;5.97;;;4.00;;
4529;SDS011;2277;51.626;7.516;2023-06-24T03:42:49;8.77;;;4.30;;
4529;SDS011;2277;51.626;7.516;2023-06-24T03:45:14;5.80;;;4.13;;
4529;SDS011;2277;51.626;7.516;2023-06-24T03:47:40;7.20;;;5.03;;
4529;SDS011;2277;51.626;7.516;2023-06-24T03:50:06;6.30;;;4.70;;
4529;SDS011;2277;51.626;7.516;2023-06-24T03:52:32;9.30;;;5.90;;
4529;SDS011;2277;51.626;7.516;2023-06-24T03:54:57;5.67;;;3.90;;
4529;SDS011;2277;51.626;7.516;2023-06-24T03:57:23;8.30;;;4.77;;
4529;SDS011;2277;51.626;7.516;2023-06-24T03:59:49;8.37;;;5.47;;
4529;SDS011;2277;51.626;7.516;2023-06-24T04:02:14;8.27;;;4.83;;
4529;SDS011;2277;51.626;7.516;2023-06-24T04:04:40;6.33;;;4.80;;
4529;SDS011;2277;51.626;7.516;2023-06-24T04:07:06;5.77;;;4.00;;
4529;SDS011;2277;51.626;7.516;2023-06-24T04:09:34;9.83;;;6.23;;
4529;SDS011;2277;51.626;7.516;2023-06-24T04:12:00;6.83;;;4.50;;
4529;SDS011;2277;51.626;7.516;2023-06-24T04:14:26;8.10;;;5.20;;
4529;SDS011;2277;51.626;7.516;2023-06-24T04:16:52;5.07;;;4.67;;
4529;SDS011;2277;51.626;7.516;2023-06-24T04:19:18;5.33;;;4.53;;
4529;SDS011;2277;51.626;7.516;2023-06-24T04:21:43;5.43;;;4.50;;
4529;SDS011;2277;51.626;7.516;2023-06-24T04:24:09;7.40;;;6.20;;
4529;SDS011;2277;51.626;7.516;2023-06-24T04:26:34;6.17;;;5.67;;
4529;SDS011;2277;51.626;7.516;2023-06-24T04:29:00;4.70;;;4.23;;
4529;SDS011;2277;51.626;7.516;2023-06-24T04:31:26;8.63;;;5.23;;
4529;SDS011;2277;51.626;7.516;2023-06-24T04:33:53;6.43;;;4.50;;
4529;SDS011;2277;51.626;7.516;2023-06-24T04:36:18;6.90;;;5.33;;
4529;SDS011;2277;51.626;7.516;2023-06-24T04:38:44;8.37;;;6.50;;
4529;SDS011;2277;51.626;7.516;2023-06-24T04:41:10;7.10;;;5.53;;
4529;SDS011;2277;51.626;7.516;2023-06-24T04:43:35;6.03;;;4.53;;
4529;SDS011;2277;51.626;7.516;2023-06-24T04:46:01;6.87;;;5.17;;
4529;SDS011;2277;51.626;7.516;2023-06-24T04:48:27;5.50;;;5.00;;
4529;SDS011;2277;51.626;7.516;2023-06-24T04:50:53;11.00;;;5.80;;
4529;SDS011;2277;51.626;7.516;2023-06-24T04:53:20;7.90;;;5.40;;
4529;SDS011;2277;51.626;7.516;2023-06-24T04:55:46;7.90;;;4.33;;
4529;SDS011;2277;51.626;7.516;2023-06-24T04:58:11;6.57;;;4.73;;
4529;SDS011;2277;51.626;7.516;2023-06-24T05:00:37;4.57;;;4.17;;
4529;SDS011;2277;51.626;7.516;2023-06-24T05:03:03;6.10;;;3.87;;
4529;SDS011;2277;51.626;7.516;2023-06-24T05:05:28;4.97;;;4.50;;
4529;SDS011;2277;51.626;7.516;2023-06-24T05:07:54;7.80;;;5.43;;
4529;SDS011;2277;51.626;7.516;2023-06-24T05:10:20;6.43;;;4.03;;
4529;SDS011;2277;51.626;7.516;2023-06-24T05:12:45;9.30;;;4.20;;
4529;SDS011;2277;51.626;7.516;2023-06-24T05:15:11;7.60;;;4.70;;
4529;SDS011;2277;51.626;7.516;2023-06-24T05:17:37;6.73;;;4.83;;
4529;SDS011;2277;51.626;7.516;2023-06-24T05:20:02;5.23;;;3.97;;
4529;SDS011;2277;51.626;7.516;2023-06-24T05:22:28;6.53;;;4.23;;
4529;SDS011;2277;51.626;7.516;2023-06-24T05:24:54;7.77;;;5.00;;
4529;SDS011;2277;51.626;7.516;2023-06-24T05:27:20;8.00;;;4.60;;
4529;SDS011;2277;51.626;7.516;2023-06-24T05:29:45;6.57;;;4.63;;
4529;SDS011;2277;51.626;7.516;2023-06-24T05:32:11;6.87;;;4.50;;
4529;SDS011;2277;51.626;7.516;2023-06-24T05:34:37;4.10;;;3.70;;
4529;SDS011;2277;51.626;7.516;2023-06-24T05:37:02;6.63;;;4.17;;
4529;SDS011;2277;51.626;7.516;2023-06-24T05:39:29;7.77;;;4.87;;
4529;SDS011;2277;51.626;7.516;2023-06-24T05:41:55;7.20;;;4.53;;
4529;SDS011;2277;51.626;7.516;2023-06-24T05:44:21;7.07;;;4.40;;
4529;SDS011;2277;51.626;7.516;2023-06-24T05:46:47;6.97;;;4.70;;
4529;SDS011;2277;51.626;7.516;2023-06-24T05:49:13;5.93;;;5.33;;
4529;SDS011;2277;51.626;7.516;2023-06-24T05:51:39;6.73;;;4.40;;
4529;SDS011;2277;51.626;7.516;2023-06-24T05:54:04;5.53;;;4.47;;
4529;SDS011;2277;51.626;7.516;2023-06-24T05:56:30;5.77;;;4.20;;
4529;SDS011;2277;51.626;7.516;2023-06-24T05:58:56;8.00;;;5.97;;
4529;SDS011;2277;51.626;7.516;2023-06-24T06:01:21;6.70;;;4.83;;
4529;SDS011;2277;51.626;7.516;2023-06-24T06:03:47;7.37;;;4.60;;
4529;SDS011;2277;51.626;7.516;2023-06-24T06:06:13;6.73;;;3.73;;
4529;SDS011;2277;51.626;7.516;2023-06-24T06:08:38;8.07;;;5.43;;
4529;SDS011;2277;51.626;7.516;2023-06-24T06:11:04;7.13;;;4.13;;
4529;SDS011;2277;51.626;7.516;2023-06-24T06:13:30;8.63;;;5.50;;
4529;SDS011;2277;51.626;7.516;2023-06-24T06:15:56;7.77;;;3.90;;
4529;SDS011;2277;51.626;7.516;2023-06-24T06:18:22;6.40;;;3.77;;
4529;SDS011;2277;51.626;7.516;2023-06-24T06:20:47;9.23;;;4.73;;
4529;SDS011;2277;51.626;7.516;2023-06-24T06:23:14;10.63;;;5.80;;
4529;SDS011;2277;51.626;7.516;2023-06-24T06:25:41;9.90;;;4.63;;
4529;SDS011;2277;51.626;7.516;2023-06-24T06:28:06;5.07;;;4.20;;
4529;SDS011;2277;51.626;7.516;2023-06-24T06:30:32;6.87;;;5.13;;
4529;SDS011;2277;51.626;7.516;2023-06-24T06:32:57;5.80;;;4.50;;
4529;SDS011;2277;51.626;7.516;2023-06-24T06:35:23;4.03;;;2.93;;
4529;SDS011;2277;51.626;7.516;2023-06-24T06:37:48;4.00;;;3.60;;
4529;SDS011;2277;51.626;7.516;2023-06-24T06:40:21;4.63;;;3.90;;
4529;SDS011;2277;51.626;7.516;2023-06-24T06:42:47;5.17;;;3.47;;
4529;SDS011;2277;51.626;7.516;2023-06-24T06:45:12;5.43;;;4.10;;
4529;SDS011;2277;51.626;7.516;2023-06-24T06:47:38;6.00;;;4.80;;
4529;SDS011;2277;51.626;7.516;2023-06-24T06:50:04;9.50;;;6.20;;
4529;SDS011;2277;51.626;7.516;2023-06-24T06:52:30;8.30;;;4.80;;
4529;SDS011;2277;51.626;7.516;2023-06-24T06:54:56;7.60;;;4.70;;
4529;SDS011;2277;51.626;7.516;2023-06-24T06:57:21;8.40;;;5.70;;
4529;SDS011;2277;51.626;7.516;2023-06-24T06:59:47;9.07;;;5.87;;
4529;SDS011;2277;51.626;7.516;2023-06-24T07:02:15;7.10;;;4.40;;
4529;SDS011;2277;51.626;7.516;2023-06-24T07:04:42;6.23;;;5.07;;
4529;SDS011;2277;51.626;7.516;2023-06-24T07:07:08;7.50;;;4.90;;
4529;SDS011;2277;51.626;7.516;2023-06-24T07:09:33;7.60;;;4.80;;
4529;SDS011;2277;51.626;7.516;2023-06-24T07:11:59;6.00;;;4.13;;
4529;SDS011;2277;51.626;7.516;2023-06-24T07:14:25;6.57;;;4.20;;
4529;SDS011;2277;51.626;7.516;2023-06-24T07:16:50;6.37;;;5.13;;
4529;SDS011;2277;51.626;7.516;2023-06-24T07:19:16;5.97;;;4.30;;
4529;SDS011;2277;51.626;7.516;2023-06-24T07:21:42;10.70;;;4.00;;
4529;SDS011;2277;51.626;7.516;2023-06-24T07:24:07;6.90;;;4.23;;
4529;SDS011;2277;51.626;7.516;2023-06-24T07:26:33;5.13;;;3.47;;
4529;SDS011;2277;51.626;7.516;2023-06-24T07:28:58;4.17;;;3.07;;
4529;SDS011;2277;51.626;7.516;2023-06-24T07:31:25;3.33;;;2.70;;
4529;SDS011;2277;51.626;7.516;2023-06-24T07:33:50;7.40;;;3.90;;
4529;SDS011;2277;51.626;7.516;2023-06-24T07:36:16;5.13;;;3.50;;
4529;SDS011;2277;51.626;7.516;2023-06-24T07:38:42;5.97;;;3.53;;
4529;SDS011;2277;51.626;7.516;2023-06-24T07:41:07;5.97;;;3.80;;
4529;SDS011;2277;51.626;7.516;2023-06-24T07:43:33;5.17;;;3.07;;
4529;SDS011;2277;51.626;7.516;2023-06-24T07:45:58;5.33;;;3.50;;
4529;SDS011;2277;51.626;7.516;2023-06-24T07:48:24;4.00;;;3.00;;
4529;SDS011;2277;51.626;7.516;2023-06-24T07:50:50;5.37;;;4.13;;
4529;SDS011;2277;51.626;7.516;2023-06-24T07:53:15;7.23;;;4.90;;
4529;SDS011;2277;51.626;7.516;2023-06-24T07:55:41;4.27;;;3.23;;
4529;SDS011;2277;51.626;7.516;2023-06-24T07:58:06;6.77;;;4.00;;
4529;SDS011;2277;51.626;7.516;2023-06-24T08:00:32;4.80;;;3.43;;
4529;SDS011;2277;51.626;7.516;2023-06-24T08:02:58;6.57;;;5.50;;
4529;SDS011;2277;51.626;7.516;2023-06-24T08:05:24;10.87;;;5.00;;
4529;SDS011;2277;51.626;7.516;2023-06-24T08:07:50;5.40;;;3.63;;
4529;SDS011;2277;51.626;7.516;2023-06-24T08:10:16;7.00;;;4.00;;
4529;SDS011;2277;51.626;7.516;2023-06-24T08:12:42;4.27;;;3.30;;
4529;SDS011;2277;51.626;7.516;2023-06-24T08:15:07;5.87;;;3.83;;
4529;SDS011;2277;51.626;7.516;2023-06-24T08:17:33;5.70;;;4.87;;
4529;SDS011;2277;51.626;7.516;2023-06-24T08:19:59;5.23;;;3.73;;
4529;SDS011;2277;51.626;7.516;2023-06-24T08:22:25;10.53;;;4.00;;
4529;SDS011;2277;51.626;7.516;2023-06-24T08:24:51;5.60;;;4.23;;
4529;SDS011;2277;51.626;7.516;2023-06-24T08:27:16;8.27;;;3.50;;
4529;SDS011;2277;51.626;7.516;2023-06-24T08:29:42;6.37;;;3.63;;
4529;SDS011;2277;51.626;7.516;2023-06-24T08:32:07;5.90;;;3.37;;
4529;SDS011;2277;51.626;7.516;2023-06-24T08:34:34;6.53;;;3.57;;
4529;SDS011;2277;51.626;7.516;2023-06-24T08:37:00;4.80;;;3.33;;
4529;SDS011;2277;51.626;7.516;2023-06-24T08:39:25;5.73;;;4.23;;
4529;SDS011;2277;51.626;7.516;2023-06-24T08:41:51;9.70;;;4.63;;
4529;SDS011;2277;51.626;7.516;2023-06-24T08:44:18;5.30;;;3.17;;
4529;SDS011;2277;51.626;7.516;2023-06-24T08:46:43;7.63;;;3.30;;
4529;SDS011;2277;51.626;7.516;2023-06-24T08:51:46;4.93;;;3.43;;
4529;SDS011;2277;51.626;7.516;2023-06-24T08:54:19;8.03;;;3.97;;
4529;SDS011;2277;51.626;7.516;2023-06-24T08:56:46;4.90;;;3.33;;
4529;SDS011;2277;51.626;7.516;2023-06-24T08:59:12;6.90;;;4.33;;
4529;SDS011;2277;51.626;7.516;2023-06-24T09:01:38;4.93;;;4.00;;
4529;SDS011;2277;51.626;7.516;2023-06-24T09:04:04;6.60;;;4.23;;
4529;SDS011;2277;51.626;7.516;2023-06-24T09:06:32;5.80;;;5.20;;
4529;SDS011;2277;51.626;7.516;2023-06-24T09:08:58;6.20;;;3.93;;
4529;SDS011;2277;51.626;7.516;2023-06-24T09:11:24;3.97;;;3.37;;
4529;SDS011;2277;51.626;7.516;2023-06-24T09:13:58;5.73;;;3.47;;
4529;SDS011;2277;51.626;7.516;2023-06-24T09:16:25;4.03;;;3.70;;
4529;SDS011;2277;51.626;7.516;2023-06-24T09:18:51;4.50;;;3.50;;
4529;SDS011;2277;51.626;7.516;2023-06-24T09:21:24;6.40;;;5.17;;
4529;SDS011;2277;51.626;7.516;2023-06-24T09:23:54;5.53;;;4.37;;
4529;SDS011;2277;51.626;7.516;2023-06-24T09:26:24;5.97;;;3.97;;
4529;SDS011;2277;51.626;7.516;2023-06-24T09:28:50;7.80;;;7.10;;
4529;SDS011;2277;51.626;7.516;2023-06-24T09:31:16;6.10;;;4.87;;
4529;SDS011;2277;51.626;7.516;2023-06-24T09:33:43;6.93;;;4.53;;
4529;SDS011;2277;51.626;7.516;2023-06-24T09:36:12;6.90;;;6.17;;
4529;SDS011;2277;51.626;7.516;2023-06-24T09:38:40;5.63;;;4.60;;
4529;SDS011;2277;51.626;7.516;2023-06-24T09:41:09;5.20;;;3.70;;
4529;SDS011;2277;51.626;7.516;2023-06-24T09:43:35;6.03;;;4.17;;
4529;SDS011;2277;51.626;7.516;2023-06-24T09:46:02;9.23;;;5.00;;
4529;SDS011;2277;51.626;7.516;2023-06-24T09:48:28;7.40;;;6.10;;
4529;SDS011;2277;51.626;7.516;2023-06-24T09:50:55;6.47;;;4.43;;
4529;SDS011;2277;51.626;7.516;2023-06-24T09:53:33;5.73;;;4.60;;
4529;SDS011;2277;51.626;7.516;2023-06-24T09:56:00;5.30;;;4.53;;
4529;SDS011;2277;51.626;7.516;2023-06-24T09:58:31;4.33;;;3.90;;
4529;SDS011;2277;51.626;7.516;2023-06-24T10:01:02;9.03;;;6.27;;
4529;SDS011;2277;51.626;7.516;2023-06-24T10:03:29;9.43;;;4.60;;
4529;SDS011;2277;51.626;7.516;2023-06-24T10:05:59;6.23;;;4.47;;
4529;SDS011;2277;51.626;7.516;2023-06-24T10:08:27;4.80;;;4.30;;
4529;SDS011;2277;51.626;7.516;2023-06-24T10:10:53;7.90;;;4.80;;
4529;SDS011;2277;51.626;7.516;2023-06-24T10:13:19;9.57;;;5.17;;
4529;SDS011;2277;51.626;7.516;2023-06-24T10:15:44;7.23;;;4.60;;
4529;SDS011;2277;51.626;7.516;2023-06-24T10:21:01;6.13;;;4.63;;
4529;SDS011;2277;51.626;7.516;2023-06-24T10:24:10;4.53;;;3.40;;
4529;SDS011;2277;51.626;7.516;2023-06-24T10:36:55;3.57;;;3.27;;
4529;SDS011;2277;51.626;7.516;2023-06-24T10:44:49;3.57;;;2.60;;
4529;SDS011;2277;51.626;7.516;2023-06-24T10:47:15;3.63;;;3.17;;
4529;SDS011;2277;51.626;7.516;2023-06-24T10:49:41;4.97;;;2.90;;
4529;SDS011;2277;51.626;7.516;2023-06-24T10:52:10;3.47;;;2.40;;
4529;SDS011;2277;51.626;7.516;2023-06-24T10:54:37;4.13;;;3.57;;
4529;SDS011;2277;51.626;7.516;2023-06-24T10:57:06;3.37;;;3.07;;
4529;SDS011;2277;51.626;7.516;2023-06-24T10:59:39;7.50;;;4.43;;
4529;SDS011;2277;51.626;7.516;2023-06-24T11:02:05;5.70;;;4.10;;
4529;SDS011;2277;51.626;7.516;2023-06-24T11:04:32;4.33;;;2.53;;
4529;SDS011;2277;51.626;7.516;2023-06-24T11:06:58;3.87;;;3.20;;
4529;SDS011;2277;51.626;7.516;2023-06-24T11:09:25;4.00;;;3.20;;
4529;SDS011;2277;51.626;7.516;2023-06-24T11:11:51;11.00;;;3.70;;
4529;SDS011;2277;51.626;7.516;2023-06-24T11:14:17;4.77;;;2.50;;
4529;SDS011;2277;51.626;7.516;2023-06-24T11:16:47;2.43;;;2.23;;
4529;SDS011;2277;51.626;7.516;2023-06-24T11:19:13;3.33;;;2.90;;
4529;SDS011;2277;51.626;7.516;2023-06-24T11:21:38;3.57;;;2.30;;
4529;SDS011;2277;51.626;7.516;2023-06-24T11:24:04;4.00;;;2.00;;
4529;SDS011;2277;51.626;7.516;2023-06-24T11:26:30;4.90;;;3.43;;
4529;SDS011;2277;51.626;7.516;2023-06-24T11:28:57;3.37;;;2.77;;
4529;SDS011;2277;51.626;7.516;2023-06-24T11:31:26;4.50;;;2.60;;
4529;SDS011;2277;51.626;7.516;2023-06-24T11:33:51;4.70;;;3.20;;
4529;SDS011;2277;51.626;7.516;2023-06-24T11:36:17;2.53;;;2.33;;
4529;SDS011;2277;51.626;7.516;2023-06-24T11:38:47;2.93;;;2.33;;
4529;SDS011;2277;51.626;7.516;2023-06-24T11:41:13;7.30;;;3.10;;
4529;SDS011;2277;51.626;7.516;2023-06-24T11:43:46;4.90;;;3.10;;
4529;SDS011;2277;51.626;7.516;2023-06-24T11:46:24;3.50;;;1.87;;
4529;SDS011;2277;51.626;7.516;2023-06-24T11:48:51;5.30;;;3.50;;
4529;SDS011;2277;51.626;7.516;2023-06-24T11:51:17;6.27;;;4.60;;
4529;SDS011;2277;51.626;7.516;2023-06-24T11:53:43;1.73;;;1.37;;
4529;SDS011;2277;51.626;7.516;2023-06-24T11:56:10;2.13;;;1.70;;
4529;SDS011;2277;51.626;7.516;2023-06-24T11:58:37;3.70;;;2.00;;
4529;SDS011;2277;51.626;7.516;2023-06-24T12:01:03;2.70;;;1.63;;
4529;SDS011;2277;51.626;7.516;2023-06-24T12:03:31;3.33;;;1.97;;
4529;SDS011;2277;51.626;7.516;2023-06-24T12:05:58;2.77;;;1.90;;
4529;SDS011;2277;51.626;7.516;2023-06-24T12:08:24;2.90;;;1.93;;
4529;SDS011;2277;51.626;7.516;2023-06-24T12:10:51;1.80;;;1.63;;
4529;SDS011;2277;51.626;7.516;2023-06-24T12:13:17;3.30;;;1.80;;
4529;SDS011;2277;51.626;7.516;2023-06-24T12:15:43;4.53;;;2.13;;
4529;SDS011;2277;51.626;7.516;2023-06-24T12:18:09;2.23;;;2.03;;
4529;SDS011;2277;51.626;7.516;2023-06-24T12:20:35;2.50;;;2.20;;
4529;SDS011;2277;51.626;7.516;2023-06-24T12:23:01;2.90;;;2.20;;
4529;SDS011;2277;51.626;7.516;2023-06-24T12:25:30;2.60;;;1.53;;
4529;SDS011;2277;51.626;7.516;2023-06-24T12:27:56;3.07;;;2.03;;
4529;SDS011;2277;51.626;7.516;2023-06-24T12:30:21;3.13;;;2.83;;
4529;SDS011;2277;51.626;7.516;2023-06-24T12:32:49;2.53;;;1.80;;
4529;SDS011;2277;51.626;7.516;2023-06-24T12:35:15;3.20;;;2.07;;
4529;SDS011;2277;51.626;7.516;2023-06-24T12:37:40;2.90;;;1.77;;
4529;SDS011;2277;51.626;7.516;2023-06-24T12:40:06;6.70;;;1.93;;
4529;SDS011;2277;51.626;7.516;2023-06-24T12:42:32;3.47;;;3.17;;
4529;SDS011;2277;51.626;7.516;2023-06-24T12:44:58;3.00;;;1.90;;
4529;SDS011;2277;51.626;7.516;2023-06-24T12:47:24;2.23;;;2.00;;
4529;SDS011;2277;51.626;7.516;2023-06-24T12:49:50;2.53;;;1.70;;
4529;SDS011;2277;51.626;7.516;2023-06-24T12:52:15;2.43;;;2.23;;
4529;SDS011;2277;51.626;7.516;2023-06-24T12:54:41;2.57;;;2.07;;
4529;SDS011;2277;51.626;7.516;2023-06-24T12:57:07;2.10;;;1.67;;
4529;SDS011;2277;51.626;7.516;2023-06-24T12:59:33;5.70;;;2.57;;
4529;SDS011;2277;51.626;7.516;2023-06-24T13:01:58;3.90;;;2.37;;
4529;SDS011;2277;51.626;7.516;2023-06-24T13:04:24;3.37;;;1.90;;
4529;SDS011;2277;51.626;7.516;2023-06-24T13:06:51;5.10;;;3.83;;
4529;SDS011;2277;51.626;7.516;2023-06-24T13:09:17;4.90;;;3.43;;
4529;SDS011;2277;51.626;7.516;2023-06-24T13:11:42;2.90;;;1.93;;
4529;SDS011;2277;51.626;7.516;2023-06-24T13:14:08;3.50;;;1.70;;
4529;SDS011;2277;51.626;7.516;2023-06-24T13:16:35;1.80;;;1.40;;
4529;SDS011;2277;51.626;7.516;2023-06-24T13:19:01;2.60;;;2.17;;
4529;SDS011;2277;51.626;7.516;2023-06-24T13:21:26;2.57;;;1.77;;
4529;SDS011;2277;51.626;7.516;2023-06-24T13:23:52;2.60;;;1.87;;
4529;SDS011;2277;51.626;7.516;2023-06-24T13:26:18;3.10;;;2.03;;
4529;SDS011;2277;51.626;7.516;2023-06-24T13:28:43;2.63;;;2.03;;
4529;SDS011;2277;51.626;7.516;2023-06-24T13:31:09;1.70;;;1.40;;
4529;SDS011;2277;51.626;7.516;2023-06-24T13:33:35;2.57;;;1.97;;
4529;SDS011;2277;51.626;7.516;2023-06-24T13:36:00;2.43;;;1.70;;
4529;SDS011;2277;51.626;7.516;2023-06-24T13:38:27;3.20;;;1.97;;
4529;SDS011;2277;51.626;7.516;2023-06-24T13:40:53;1.53;;;1.30;;
4529;SDS011;2277;51.626;7.516;2023-06-24T13:43:19;3.60;;;3.00;;
4529;SDS011;2277;51.626;7.516;2023-06-24T13:45:44;2.87;;;1.87;;
4529;SDS011;2277;51.626;7.516;2023-06-24T13:48:10;7.70;;;3.60;;
4529;SDS011;2277;51.626;7.516;2023-06-24T13:50:36;4.73;;;2.13;;
4529;SDS011;2277;51.626;7.516;2023-06-24T13:53:01;2.80;;;1.80;;
4529;SDS011;2277;51.626;7.516;2023-06-24T13:55:27;3.93;;;1.70;;
4529;SDS011;2277;51.626;7.516;2023-06-24T13:57:53;2.27;;;1.80;;
4529;SDS011;2277;51.626;7.516;2023-06-24T14:00:18;1.67;;;1.57;;
4529;SDS011;2277;51.626;7.516;2023-06-24T14:02:44;4.63;;;2.20;;
4529;SDS011;2277;51.626;7.516;2023-06-24T14:05:10;2.83;;;2.13;;
4529;SDS011;2277;51.626;7.516;2023-06-24T14:07:36;2.40;;;2.00;;
4529;SDS011;2277;51.626;7.516;2023-06-24T14:10:02;3.00;;;1.40;;
4529;SDS011;2277;51.626;7.516;2023-06-24T14:12:27;2.40;;;1.63;;
4529;SDS011;2277;51.626;7.516;2023-06-24T14:14:53;2.93;;;2.30;;
4529;SDS011;2277;51.626;7.516;2023-06-24T14:17:19;2.67;;;2.40;;
4529;SDS011;2277;51.626;7.516;2023-06-24T14:19:44;2.37;;;1.80;;
4529;SDS011;2277;51.626;7.516;2023-06-24T14:22:11;6.87;;;3.20;;
4529;SDS011;2277;51.626;7.516;2023-06-24T14:24:37;3.33;;;2.37;;
4529;SDS011;2277;51.626;7.516;2023-06-24T14:27:03;2.70;;;1.90;;
4529;SDS011;2277;51.626;7.516;2023-06-24T14:29:32;2.20;;;1.30;;
4529;SDS011;2277;51.626;7.516;2023-06-24T14:31:57;2.93;;;2.40;;
4529;SDS011;2277;51.626;7.516;2023-06-24T14:34:23;3.67;;;2.70;;
4529;SDS011;2277;51.626;7.516;2023-06-24T14:36:48;3.33;;;1.60;;
4529;SDS011;2277;51.626;7.516;2023-06-24T14:39:15;3.60;;;1.70;;
4529;SDS011;2277;51.626;7.516;2023-06-24T14:41:41;5.20;;;1.80;;
4529;SDS011;2277;51.626;7.516;2023-06-24T14:44:07;3.80;;;1.97;;
4529;SDS011;2277;51.626;7.516;2023-06-24T14:46:33;2.80;;;2.00;;
4529;SDS011;2277;51.626;7.516;2023-06-24T14:48:59;3.67;;;2.00;;
4529;SDS011;2277;51.626;7.516;2023-06-24T14:51:24;1.70;;;1.50;;
4529;SDS011;2277;51.626;7.516;2023-06-24T14:53:50;4.00;;;3.03;;
4529;SDS011;2277;51.626;7.516;2023-06-24T14:56:16;2.07;;;1.67;;
4529;SDS011;2277;51.626;7.516;2023-06-24T14:58:41;2.50;;;1.57;;
4529;SDS011;2277;51.626;7.516;2023-06-24T15:01:07;4.13;;;2.50;;
4529;SDS011;2277;51.626;7.516;2023-06-24T15:03:32;2.20;;;2.00;;
4529;SDS011;2277;51.626;7.516;2023-06-24T15:05:58;3.30;;;1.60;;
4529;SDS011;2277;51.626;7.516;2023-06-24T15:08:23;2.43;;;2.17;;
4529;SDS011;2277;51.626;7.516;2023-06-24T15:10:51;2.70;;;1.63;;
4529;SDS011;2277;51.626;7.516;2023-06-24T15:13:17;3.03;;;2.17;;
4529;SDS011;2277;51.626;7.516;2023-06-24T15:15:43;2.33;;;1.83;;
4529;SDS011;2277;51.626;7.516;2023-06-24T15:18:08;3.00;;;1.90;;
4529;SDS011;2277;51.626;7.516;2023-06-24T15:20:34;2.70;;;1.77;;
4529;SDS011;2277;51.626;7.516;2023-06-24T15:23:00;2.00;;;1.70;;
4529;SDS011;2277;51.626;7.516;2023-06-24T15:25:25;2.47;;;2.07;;
4529;SDS011;2277;51.626;7.516;2023-06-24T15:27:52;2.73;;;2.00;;
4529;SDS011;2277;51.626;7.516;2023-06-24T15:30:18;2.43;;;1.57;;
4529;SDS011;2277;51.626;7.516;2023-06-24T15:32:43;3.23;;;2.23;;
4529;SDS011;2277;51.626;7.516;2023-06-24T15:35:11;2.37;;;1.70;;
4529;SDS011;2277;51.626;7.516;2023-06-24T15:37:37;6.80;;;3.10;;
4529;SDS011;2277;51.626;7.516;2023-06-24T15:40:02;3.50;;;2.57;;
4529;SDS011;2277;51.626;7.516;2023-06-24T15:42:29;3.00;;;2.00;;
4529;SDS011;2277;51.626;7.516;2023-06-24T15:44:55;2.80;;;1.50;;
4529;SDS011;2277;51.626;7.516;2023-06-24T15:47:20;1.80;;;1.60;;